Flight Track Log - Related Links

Times and Time Zones

All times are in EDT time to prevent confusion due to time zone crossing. See the DAL1118 flight status page for this flight to view local times or setup timezone preferences in your user account.


Time Position Orientation Groundspeed Altitude Reporting Facility
EDT Latitude Longitude Course Direction KTS MPH feet Rate Location/Type
Wed 07:21:56 PM 40.8014 -111.9642 90° East 171 197 4,900  Level Salt Lake Center
Wed 07:22:30 PM 40.8211 -111.9633 North 170 196 5,700 1,553 Climbing Salt Lake Center
Wed 07:23:21 PM 40.8828 -111.9733 353° North 232 267 7,100 2,488 Climbing Salt Lake Center
Wed 07:24:33 PM 40.9633 -111.9836 354° North 245 282 10,800 2,731 Climbing Salt Lake Center
Wed 07:25:00 PM 41.1090 -111.7512 124° Southeast  Level FlightAware Approximate
Wed 07:25:35 PM 41.0011 -111.9106 56° Northeast 275 316 13,200  Level Salt Lake Center
Wed 07:26:00 PM 41.0230 -111.6255 133° Southeast  Level FlightAware Approximate
Wed 07:26:37 PM 41.0108 -111.8089 83° East 299 344 14,700  Level Salt Lake Center
Wed 07:27:00 PM 41.0334 -111.4614 90° East  Level FlightAware Approximate
Wed 07:27:38 PM 41.0219 -111.6839 83° East 352 405 15,700  Level Salt Lake Center
Wed 07:28:40 PM 41.0531 -111.5192 76° East 388 447 17,900 1,742 Climbing Salt Lake Center
Wed 07:29:42 PM 41.0844 -111.3786 73° East 399 459 19,300 1,561 Climbing Salt Lake Center
Wed 07:30:43 PM 41.1164 -111.2347 74° East 408 470 21,100 1,610 Climbing Salt Lake Center
Wed 07:31:45 PM 41.1497 -111.0861 73° East 421 484 22,600 1,452 Climbing Salt Lake Center
Wed 07:32:47 PM 41.1844 -110.9275 74° East 426 490 24,100 1,415 Climbing Salt Lake Center
Wed 07:33:48 PM 41.2233 -110.7542 73° East 437 503 25,500 1,268 Climbing Salt Lake Center
Wed 07:34:50 PM 41.2569 -110.6022 74° East 445 512 26,700 1,065 Climbing Salt Lake Center
Wed 07:35:52 PM 41.2897 -110.4494 74° East 450 518 27,700 968 Climbing Salt Lake Center
Wed 07:36:54 PM 41.3283 -110.2683 74° East 455 524 28,700 976 Climbing Salt Lake Center
Wed 07:37:55 PM 41.3619 -110.1106 74° East 462 532 29,700 927 Climbing Salt Lake Center
Wed 07:38:57 PM 41.4014 -109.9267 74° East 463 533 30,600 1,016 Climbing Salt Lake Center
Wed 07:39:59 PM 41.4439 -109.7739 70° East 460 529 31,800 1,317 Climbing Salt Lake Center
Wed 07:41:00 PM 41.4925 -109.6014 69° East 445 512 33,300 1,024 Climbing Salt Lake Center
Wed 07:42:02 PM 41.5347 -109.4531 69° East 445 512 33,900 484 Climbing Salt Lake Center
Wed 07:43:04 PM 41.5769 -109.3014 70° East 450 518 34,300 341 Climbing Salt Lake Center
Wed 07:44:05 PM 41.6272 -109.1200 70° East 457 526 34,600 341 Climbing Salt Lake Center
Wed 07:45:07 PM 41.6697 -108.9619 70° East 465 535 35,000 194 Climbing Salt Lake Center
Wed 07:46:09 PM 41.7131 -108.8039 70° East 469 540 35,000  Level Salt Lake Center
Wed 07:47:10 PM 41.7633 -108.6178 70° East 474 545 35,000  Level Salt Lake Center
Wed 07:48:12 PM 41.8069 -108.4572 70° East 478 550 35,000  Level Salt Lake Center
Wed 07:49:14 PM 41.8567 -108.2689 70° East 479 551 35,000  Level Salt Lake Center
Wed 07:50:15 PM 41.9000 -108.1100 70° East 477 549 35,000  Level Salt Lake Center
Wed 07:51:17 PM 41.9422 -107.9469 71° East 482 555 35,000  Level Salt Lake Center
Wed 07:52:19 PM 41.9903 -107.7592 71° East 478 550 35,000  Level Salt Lake Center
Wed 07:53:20 PM 42.0322 -107.5989 71° East 475 547 35,000  Level Salt Lake Center
Wed 07:54:06 PM 42.0686 -107.4636 70° East 478 550 35,000  Level Denver Center
Wed 07:55:08 PM 42.1097 -107.3008 71° East 481 554 35,000  Level Denver Center
Wed 07:56:22 PM 42.1592 -107.1097 71° East 484 557 35,000  Level Denver Center
Wed 07:57:24 PM 42.2136 -106.8897 71° East 485 558 35,000  Level Denver Center
Wed 07:58:26 PM 42.2556 -106.7256 71° East 485 558 35,000  Level Denver Center
Wed 07:59:30 PM 42.3025 -106.5314 72° East 487 560 35,000  Level Denver Center
Wed 08:00:32 PM 42.3428 -106.3706 71° East 492 566 35,000  Level Denver Center
Wed 08:01:46 PM 42.3906 -106.1747 72° East 492 566 35,000  Level Denver Center
Wed 08:02:48 PM 42.4458 -105.9522 71° East 491 565 35,000  Level Denver Center
Wed 08:03:50 PM 42.4856 -105.7833 72° East 491 565 35,000  Level Denver Center
Wed 08:04:52 PM 42.5319 -105.5853 72° East 493 567 35,000  Level Denver Center
Wed 08:05:54 PM 42.5731 -105.4139 72° East 495 570 35,000  Level Denver Center
Wed 08:06:56 PM 42.6200 -105.2164 72° East 492 566 35,000  Level Denver Center
Wed 08:07:58 PM 42.6600 -105.0447 72° East 495 570 35,000  Level Denver Center
Wed 08:09:00 PM 42.7003 -104.8728 72° East 496 571 35,000  Level Denver Center
Wed 08:10:02 PM 42.7461 -104.6697 73° East 495 570 35,000  Level Denver Center
Wed 08:11:04 PM 42.7856 -104.4944 73° East 497 572 35,000  Level Denver Center
Wed 08:12:06 PM 42.8250 -104.3197 73° East 499 574 35,000  Level Denver Center
Wed 08:13:08 PM 42.8708 -104.1156 73° East 502 578 35,000  Level Denver Center
Wed 08:14:10 PM 42.9086 -103.9417 73° East 500 575 35,000  Level Denver Center
Wed 08:15:12 PM 42.9539 -103.7394 73° East 500 575 35,000  Level Denver Center
Wed 08:16:14 PM 42.9925 -103.5639 73° East 503 579 35,000  Level Denver Center
Wed 08:17:16 PM 43.0361 -103.3592 74° East 502 578 35,000  Level Denver Center
Wed 08:18:18 PM 43.0739 -103.1825 74° East 505 581 35,000  Level Denver Center
Wed 08:19:20 PM 43.1178 -102.9761 74° East 507 583 35,000  Level Denver Center
Wed 08:20:22 PM 43.1544 -102.7989 74° East 506 582 35,000  Level Denver Center
Wed 08:21:24 PM 43.1972 -102.5892 74° East 513 590 35,000  Level Denver Center
Wed 08:22:25 PM 43.2344 -102.4106 74° East 511 588 35,000  Level Denver Center
Wed 08:23:27 PM 43.2722 -102.2281 74° East 518 596 35,000  Level Denver Center
Wed 08:25:00 PM 43.3159 -102.0074 75° East  Level FlightAware Approximate
Wed 08:25:31 PM 43.3489 -101.8453 75° East 519 597 35,000  Level Denver Center
Wed 08:26:33 PM 43.3942 -101.6147 75° East 523 602 35,000  Level Denver Center
Wed 08:27:35 PM 43.4319 -101.4239 75° East 518 596 35,000  Level Denver Center
Wed 08:28:37 PM 43.4689 -101.2336 75° East 519 597 35,000  Level Denver Center
Wed 08:29:38 PM 43.5050 -101.0425 75° East 517 595 35,000  Level Denver Center
Wed 08:30:40 PM 43.5417 -100.8506 75° East 518 596 35,000  Level Denver Center
Wed 08:31:55 PM 43.5864 -100.6192 75° East 523 602 35,000  Level Minneapolis Center
Wed 08:32:57 PM 43.6300 -100.3858 75° East 525 604 35,000  Level Minneapolis Center
Wed 08:33:59 PM 43.6653 -100.1903 76° East 527 606 35,000  Level Minneapolis Center
Wed 08:35:01 PM 43.6997 -99.9983 76° East 523 602 35,000  Level Minneapolis Center
Wed 08:36:02 PM 43.7344 -99.8100 76° East 515 593 35,000  Level Minneapolis Center
Wed 08:37:16 PM 43.7669 -99.6203 77° East 511 588 35,000  Level Minneapolis Center
Wed 08:38:19 PM 43.8086 -99.3911 76° East 512 589 35,000  Level Minneapolis Center
Wed 08:39:21 PM 43.8481 -99.1611 77° East 515 593 35,000  Level Minneapolis Center
Wed 08:40:23 PM 43.8800 -98.9722 77° East 509 586 35,000  Level Minneapolis Center
Wed 08:41:25 PM 43.9125 -98.7822 77° East 509 586 35,000  Level Minneapolis Center
Wed 08:42:27 PM 43.9458 -98.5853 77° East 510 587 35,000  Level Minneapolis Center
Wed 08:43:29 PM 43.9783 -98.3947 77° East 510 587 35,000  Level Minneapolis Center
Wed 08:44:31 PM 44.0083 -98.2039 78° East 508 585 35,000  Level Minneapolis Center
Wed 08:45:33 PM 44.0456 -97.9761 77° East 505 581 35,000  Level Minneapolis Center
Wed 08:46:35 PM 44.0764 -97.7858 77° East 506 582 35,000  Level Minneapolis Center
Wed 08:47:37 PM 44.1072 -97.5922 77° East 512 589 35,000  Level Minneapolis Center
Wed 08:48:38 PM 44.1322 -97.4375 77° East 513 590 35,000  Level Minneapolis Center
Wed 08:49:41 PM 44.1672 -97.2039 78° East 515 593 35,000  Level Minneapolis Center
Wed 08:50:55 PM 44.1972 -97.0097 78° East 515 593 35,000  Level Minneapolis Center
Wed 08:51:57 PM 44.2383 -96.7367 78° East 514 592 35,000  Level Minneapolis Center
Wed 08:52:59 PM 44.2675 -96.5411 78° East 514 592 35,000  Level Minneapolis Center
Wed 08:54:02 PM 44.2969 -96.3456 78° East 511 588 35,000  Level Minneapolis Center
Wed 08:55:04 PM 44.3272 -96.1439 78° East 516 594 35,000  Level Minneapolis Center
Wed 08:56:06 PM 44.3544 -95.9483 79° East 507 583 35,000  Level Minneapolis Center
Wed 08:57:08 PM 44.3825 -95.7517 79° East 512 589 35,000  Level Minneapolis Center
Wed 08:58:10 PM 44.4094 -95.5572 79° East 511 588 35,000  Level Minneapolis Center
Wed 08:59:14 PM 44.4397 -95.3314 79° East 496 571 35,000  Level Minneapolis Center
Wed 09:00:16 PM 44.4644 -95.1417 80° East 496 571 35,000  Level Minneapolis Center
Wed 09:01:18 PM 44.4758 -94.9569 85° East 481 554 35,000  Level Minneapolis Center
Wed 09:02:20 PM 44.4833 -94.7742 87° East 473 544 35,000  Level Minneapolis Center
Wed 09:03:22 PM 44.4892 -94.5717 88° East 475 547 35,000  Level Minneapolis Center
Wed 09:04:24 PM 44.4953 -94.3900 87° East 470 541 35,000 -48 Level Minneapolis Center
Wed 09:05:26 PM 44.5017 -94.2094 87° East 467 537 34,900  Descending Minneapolis Center
Wed 09:06:28 PM 44.5100 -94.0283 86° East 468 539 35,000 48 Climbing Minneapolis Center
Wed 09:07:30 PM 44.5161 -93.8456 87° East 472 543 35,000  Level Minneapolis Center
Wed 09:08:33 PM 44.5222 -93.6281 88° East 471 542 35,000  Level Minneapolis Center
Wed 09:09:35 PM 44.5264 -93.4464 88° East 473 544 35,000  Level Minneapolis Center
Wed 09:10:37 PM 44.5317 -93.2656 88° East 474 545 35,000  Level Minneapolis Center
Wed 09:11:39 PM 44.5361 -93.0850 88° East 475 547 35,000  Level Minneapolis Center
Wed 09:12:41 PM 44.5442 -92.8686 87° East 473 544 35,000  Level Minneapolis Center
Wed 09:13:55 PM 44.5492 -92.6889 88° East 469 540 35,000  Level Minneapolis Center
Wed 09:14:57 PM 44.5553 -92.4725 88° East 468 539 35,000  Level Minneapolis Center
Wed 09:15:59 PM 44.5603 -92.2919 88° East 468 539 35,000  Level Minneapolis Center
Wed 09:17:01 PM 44.5642 -92.1469 88° East 468 539 35,000  Level Minneapolis Center
Wed 09:18:03 PM 44.5697 -91.8917 88° East 471 542 35,000  Level Minneapolis Center
Wed 09:19:05 PM 44.5747 -91.7108 88° East 468 539 35,000  Level Minneapolis Center
Wed 09:20:07 PM 44.5783 -91.5325 88° East 463 533 35,000  Level Minneapolis Center
Wed 09:21:09 PM 44.5822 -91.3511 88° East 466 536 35,000  Level Minneapolis Center
Wed 09:22:11 PM 44.5850 -91.1742 89° East 460 529 35,000  Level Minneapolis Center
Wed 09:23:13 PM 44.5886 -90.9942 88° East 462 532 35,000  Level Minneapolis Center
Wed 09:24:14 PM 44.5908 -90.7803 89° East 460 529 35,000  Level Minneapolis Center
Wed 09:25:16 PM 44.5922 -90.6006 89° East 464 534 35,000 48 Level Minneapolis Center
Wed 09:26:18 PM 44.5953 -90.4161 89° East 467 537 35,100  Climbing Minneapolis Center
Wed 09:27:20 PM 44.5975 -90.2378 89° East 460 529 35,000 -48 Descending Minneapolis Center
Wed 09:28:22 PM 44.5983 -90.0597 90° East 458 527 35,000  Level Minneapolis Center
Wed 09:29:35 PM 44.6000 -89.8819 89° East 456 525 35,000  Level Minneapolis Center
Wed 09:30:37 PM 44.5992 -89.6464 90° East 454 522 35,000  Level Minneapolis Center
Wed 09:31:39 PM 44.5997 -89.4686 90° East 455 524 35,000  Level Minneapolis Center
Wed 09:32:41 PM 44.6006 -89.2897 90° East 457 526 35,000  Level Minneapolis Center
Wed 09:33:42 PM 44.6014 -89.1078 90° East 461 531 35,000  Level Minneapolis Center
Wed 09:34:44 PM 44.6006 -88.9269 90° East 462 532 35,000  Level Minneapolis Center
Wed 09:35:46 PM 44.6006 -88.7481 90° East 460 529 35,000  Level Minneapolis Center
Wed 09:36:47 PM 44.5997 -88.5425 90° East 455 524 35,000  Level Minneapolis Center
Wed 09:37:49 PM 44.5975 -88.3664 91° East 451 519 35,000  Level Minneapolis Center
Wed 09:38:50 PM 44.5961 -88.1942 91° East 446 513 35,000  Level Minneapolis Center
Wed 09:39:52 PM 44.5942 -88.0214 91° East 443 510 35,000 -49 Level Minneapolis Center
Wed 09:40:53 PM 44.5922 -87.8778 91° East 437 503 34,900 -49 Descending Minneapolis Center
Wed 09:41:55 PM 44.5889 -87.6731 91° East 439 505 34,900  Level Minneapolis Center
Wed 09:42:56 PM 44.5853 -87.5017 92° East 441 507 34,900 49 Level Minneapolis Center
Wed 09:43:57 PM 44.5831 -87.3278 91° East 446 513 35,000 49 Climbing Minneapolis Center
Wed 09:44:59 PM 44.5800 -87.1497 91° East 456 525 35,000 44 Level Minneapolis Center
Wed 09:46:12 PM 44.5756 -86.9342 92° East 462 532 35,100 311 Climbing Minneapolis Center
Wed 09:47:14 PM 44.5717 -86.7542 92° East 465 535 35,700 732 Climbing Minneapolis Center
Wed 09:48:15 PM 44.5672 -86.5383 92° East 465 535 36,600 590 Climbing Minneapolis Center
Wed 09:49:16 PM 44.5633 -86.3622 92° East 459 528 36,900 146 Climbing Minneapolis Center
Wed 09:50:18 PM 44.5586 -86.1883 92° East 454 522 36,900  Level Minneapolis Center
Wed 09:51:19 PM 44.5533 -86.0136 92° East 456 525 36,900 34 Level Minneapolis Center
Wed 09:53:16 PM 44.5167 -85.6500 98° East 460 529 37,000  Climbing Toronto Center
Wed 09:53:33 PM 44.5425 -85.6633 340° North 456 525 36,900  Descending Minneapolis Center
Wed 09:54:35 PM 44.5350 -85.4172 92° East 455 524 37,000 49 Climbing Minneapolis Center
Wed 09:55:36 PM 44.5292 -85.2411 93° East 455 524 37,000  Level Minneapolis Center
Wed 09:56:37 PM 44.5233 -85.0650 93° East 454 522 37,000  Level Minneapolis Center
Wed 09:57:38 PM 44.5172 -84.8897 93° East 453 521 37,000  Level Minneapolis Center
Wed 09:58:40 PM 44.5100 -84.7161 93° East 451 519 37,000 -49 Level Minneapolis Center
Wed 09:59:41 PM 44.5039 -84.5414 93° East 450 518 36,900 -49 Descending Minneapolis Center
Wed 10:00:42 PM 44.4958 -84.3664 94° East 451 519 36,900 49 Level Minneapolis Center
Wed 10:01:43 PM 44.4881 -84.1922 94° East 449 517 37,000 49 Climbing Minneapolis Center
Wed 10:02:44 PM 44.4822 -84.0197 93° East 447 514 37,000 -49 Level Minneapolis Center
Wed 10:03:46 PM 44.4722 -83.8147 94° East 443 510 36,900 -49 Descending Minneapolis Center
Wed 10:04:47 PM 44.4642 -83.6436 94° East 442 509 36,900  Level Minneapolis Center
Wed 10:05:48 PM 44.4550 -83.4717 94° East 443 510 36,900 49 Level Minneapolis Center
Wed 10:06:49 PM 44.4278 -83.3058 103° East 440 506 37,000 45 Climbing Minneapolis Center
Wed 10:08:02 PM 44.3756 -83.1503 115° Southeast 439 505 37,000  Level Minneapolis Center
Wed 10:09:03 PM 44.3172 -82.9622 113° Southeast 440 506 37,000  Level Minneapolis Center
Wed 10:10:17 PM 44.2578 -82.7747 114° Southeast 440 506 37,000  Level Minneapolis Center
Wed 10:11:16 PM 44.2000 -82.5833 113° Southeast 440 506 37,000  Level Toronto Center
Wed 10:12:16 PM 44.1833 -82.4167 98° East 440 506 37,000  Level Toronto Center
Wed 10:13:16 PM 44.1500 -82.2333 104° East 450 518 37,000  Level Toronto Center
Wed 10:14:16 PM 44.1333 -82.0667 98° East 450 518 37,000  Level Toronto Center
Wed 10:15:16 PM 44.1167 -81.9167 99° East 450 518 37,000  Level Toronto Center
Wed 10:16:16 PM 44.1000 -81.7500 98° East 450 518 37,000  Level Toronto Center
Wed 10:17:16 PM 44.0667 -81.5833 106° East 440 506 37,000  Level Toronto Center
Wed 10:18:16 PM 44.0500 -81.4000 97° East 440 506 37,000  Level Toronto Center
Wed 10:19:16 PM 44.0167 -81.2333 105° East 440 506 37,000  Level Toronto Center
Wed 10:20:16 PM 44.0000 -81.0667 98° East 440 506 37,000  Level Toronto Center
Wed 10:21:16 PM 43.9667 -80.9000 105° East 440 506 37,000  Level Toronto Center
Wed 10:22:16 PM 43.9667 -80.7167 90° East 450 518 37,000  Level Toronto Center
Wed 10:23:16 PM 43.9333 -80.5667 107° East 450 518 37,000  Level Toronto Center
Wed 10:24:16 PM 43.9167 -80.4000 98° East 450 518 37,000  Level Toronto Center
Wed 10:25:16 PM 43.8833 -80.2333 105° East 450 518 37,000  Level Toronto Center
Wed 10:26:16 PM 43.8667 -80.0667 98° East 440 506 37,000  Level Toronto Center
Wed 10:27:16 PM 43.8333 -79.8833 104° East 440 506 37,000  Level Toronto Center
Wed 10:28:16 PM 43.8167 -79.7333 99° East 450 518 37,000  Level Toronto Center
Wed 10:29:16 PM 43.7833 -79.5667 105° East 450 518 37,000  Level Toronto Center
Wed 10:30:16 PM 43.7500 -79.3833 104° East 450 518 37,000  Level Toronto Center
Wed 10:31:16 PM 43.7333 -79.2167 98° East 440 506 37,000  Level Toronto Center
Wed 10:32:16 PM 43.7000 -79.0500 105° East 450 518 37,000  Level Toronto Center
Wed 10:33:16 PM 43.6833 -78.8667 97° East 450 518 37,000  Level Toronto Center
Wed 10:34:16 PM 43.6500 -78.7167 107° East 450 518 37,000  Level Toronto Center
Wed 10:35:16 PM 43.6333 -78.5333 97° East 450 518 37,000  Level Toronto Center
Wed 10:35:57 PM 43.6158 -78.4444 105° East 446 513 37,000  Level Cleveland Center
Wed 10:36:57 PM 43.5897 -78.2761 102° East 446 513 37,000  Level Cleveland Center
Wed 10:37:57 PM 43.5617 -78.1281 105° East 446 513 37,000  Level Cleveland Center
Wed 10:38:57 PM 43.5350 -77.9603 102° East 446 513 37,000  Level Cleveland Center
Wed 10:39:57 PM 43.5061 -77.7956 104° East 446 513 37,000  Level Cleveland Center
Wed 10:40:57 PM 43.4769 -77.6253 103° East 446 513 37,000  Level Cleveland Center
Wed 10:41:57 PM 43.4478 -77.4606 104° East 446 513 37,000  Level Cleveland Center
Wed 10:43:38 PM 43.3950 -77.1614 104° East 441 507 37,000  Level Boston Center
Wed 10:44:16 PM 43.3667 -77.0167 105° East 450 518 37,000 -490 Level Toronto Center
Wed 10:45:16 PM 43.3333 -76.8667 107° East 450 518 36,200 -850 Descending Toronto Center
Wed 10:46:16 PM 43.3167 -76.6833 97° East 440 506 35,300 -600 Descending Toronto Center
Wed 10:47:16 PM 43.2667 -76.5167 112° Southeast 450 518 35,000 -150 Descending Toronto Center
Wed 10:48:16 PM 43.2500 -76.3667 99° East 450 518 35,000 -73 Level Toronto Center
Wed 10:48:38 PM 43.2525 -76.3544 74° East 436 502 34,900 -73 Descending Boston Center
Wed 10:49:38 PM 43.2206 -76.1872 105° East 441 507 34,900  Level Boston Center
Wed 10:50:38 PM 43.1900 -76.0286 105° East 441 507 34,900  Level Boston Center
Wed 10:51:38 PM 43.1597 -75.8675 104° East 441 507 34,900 50 Level Boston Center
Wed 10:52:38 PM 43.1289 -75.7033 104° East 441 507 35,000 50 Climbing Boston Center
Wed 10:53:38 PM 43.0961 -75.5397 105° East 441 507 35,000  Level Boston Center
Wed 10:54:38 PM 43.0628 -75.3758 106° East 441 507 35,000 -50 Level Boston Center
Wed 10:55:38 PM 43.0389 -75.2469 104° East 441 507 34,900  Descending Boston Center
Wed 10:56:38 PM 43.0000 -75.0492 105° East 441 507 35,000 50 Climbing Boston Center
Wed 10:57:38 PM 42.9681 -74.8889 105° East 441 507 35,000 -50 Level Boston Center
Wed 10:58:38 PM 42.9358 -74.7289 105° East 441 507 34,900 -50 Descending Boston Center
Wed 10:59:38 PM 42.9036 -74.5717 106° East 441 507 34,900 50 Level Boston Center
Wed 11:00:38 PM 42.8711 -74.4119 105° East 436 502 35,000 50 Climbing Boston Center
Wed 11:01:38 PM 42.8381 -74.2578 106° East 436 502 35,000  Level Boston Center
Wed 11:02:38 PM 42.8072 -74.0956 104° East 436 502 35,000  Level Boston Center
Wed 11:03:38 PM 42.7719 -73.9419 107° East 436 502 35,000  Level Boston Center
Wed 11:04:38 PM 42.7486 -73.8142 104° East 431 496 35,000  Level Boston Center
Wed 11:05:38 PM 42.7278 -73.6103 98° East 422 486 35,000  Level Boston Center
Wed 11:06:38 PM 42.7106 -73.4489 98° East 422 486 35,000  Level Boston Center
Wed 11:07:38 PM 42.6931 -73.2903 98° East 427 491 35,000 -200 Level Boston Center
Wed 11:08:38 PM 42.6797 -73.1319 96° East 427 491 34,600 -700 Descending Boston Center
Wed 11:09:38 PM 42.6575 -72.9653 100° East 427 491 33,600 -1,000 Descending Boston Center
Wed 11:10:38 PM 42.6417 -72.8128 98° East 432 497 32,600 -955 Descending Boston Center
Wed 11:11:50 PM 42.6211 -72.6517 100° East 427 491 31,500 -2,364 Descending Boston Center
Wed 11:12:50 PM 42.5964 -72.4569 100° East 436 502 27,400 -3,650 Descending Boston Center
Wed 11:13:50 PM 42.5775 -72.2964 99° East 446 513 24,200 -3,200 Descending Boston Center
Wed 11:14:50 PM 42.5583 -72.1442 100° East 425 489 21,000 -2,900 Descending Boston Center
Wed 11:15:50 PM 42.5414 -72.0061 99° East 414 476 18,400 -2,636 Descending Boston Center
Wed 11:17:02 PM 42.5258 -71.8344 97° East 397 457 15,200 -2,864 Descending Boston Center
Wed 11:18:02 PM 42.5103 -71.6769 98° East 385 443 12,100 -3,067 Descending Boston Center
Wed 11:18:32 PM 42.5000 -71.6000 100° East 368 423 10,600 -1,333 Descending KA90
Wed 11:19:32 PM 42.5000 -71.4833 90° East 313 360 10,100 -619 Descending KA90
Wed 11:20:38 PM 42.4833 -71.3667 101° East 274 315 9,300 -696 Descending KA90
Wed 11:21:50 PM 42.4667 -71.2500 101° East 264 304 8,500 -667 Descending KA90
Wed 11:22:44 PM 42.4667 -71.1500 90° East 265 305 7,900 -1,059 Descending KA90
Wed 11:23:32 PM 42.4500 -71.0833 109° East 264 304 6,700 -1,056 Descending KA90
Wed 11:24:32 PM 42.4167 -70.9833 114° Southeast 260 299 6,000 -318 Descending KA90
Wed 11:25:44 PM 42.3333 -70.9667 172° South 260 299 6,000 -429 Level KA90
Wed 11:26:38 PM 42.2833 -70.9833 194° South 240 276 5,100 -1,158 Descending KA90
Wed 11:27:38 PM 42.2167 -71.0000 190° South 230 265 3,800 -1,250 Descending KA90
Wed 11:28:38 PM 42.2167 -71.0667 270° West 187 215 2,600 -1,200 Descending KA90

Login

Don't have an account? Register now (free) for customized features, flight alerts, and more!